METAR AND TAF INFORMATION
METAR FOR EDXW
ADDS - METARS form results

(1739 UTC 21 March 2019)
Data provider http://aviationweather.gov/metar/data/
 
METAR text: EDXW 211720Z 25012KT 3100 BR BKN002 07/06 Q1031
Conditions at: EDXW (WESTERLAND/SYLT , DE) observed 1720 UTC 21 March 2019
Temperature: 7.0°C (45°F)
Dewpoint: 6.0°C (43°F) [RH = 93%]
Pressure (altimeter): 30.44 inches Hg (1031.0 mb)
Winds: from the WSW (250 degrees) at 14 MPH (12 knots; 6.2 m/s)
Visibility: 1.93 miles (3.11 km)
Ceiling: 200 feet AGL
Clouds: broken clouds at 200 feet AGL
Weather: BR  (mist)

METAR text: EDXW 211650Z 25012KT 3900 BR SCT003 07/07 Q1031
Conditions at: EDXW (WESTERLAND/SYLT , DE) observed 1650 UTC 21 March 2019
Temperature: 7.0°C (45°F)
Dewpoint: 7.0°C (45°F) [RH = 100%]
Pressure (altimeter): 30.44 inches Hg (1031.0 mb)
Winds: from the WSW (250 degrees) at 14 MPH (12 knots; 6.2 m/s)
Visibility: 2.42 miles (3.89 km)
Ceiling: at least 12,000 feet AGL
Clouds: scattered clouds at 300 feet AGL
Weather: BR  (mist)

Forecast for: COR
Text: TAF COR EDXW 211458Z 2115/2118 25015KT 6000 BKN001
Forecast period: 1500 to 1600 UTC 21 March 2019
Forecast type: FROM: standard forecast or significant change
Winds: from the WSW (250 degrees) at 17 MPH (15 knots; 7.7 m/s)
Visibility: 4 miles (6 km)
Ceiling: 100 feet AGL
Clouds: broken clouds at 100 feet AGL
Weather: no significant weather forecast for this period
Text: TEMPO 2115/2118 2500 BR FEW005
Forecast period: 1500 to 1800 UTC 21 March 2019
Forecast type: TEMPORARY: The following changes expected for less than half the time period
Visibility: 1.55 miles (2.49 km)
Ceiling: at least 12,000 feet AGL
Clouds: few clouds at 500 feet AGL
Weather: BR  (mist)
Text: BECMG 2116/2118 25010KT
Forecast period: 1600 to 1800 UTC 21 March 2019
Forecast type: BECOMING: Conditions expected to become as follows by 1800 UTC 21 March 2019
Winds: from the WSW (250 degrees) at 12 MPH (10 knots; 5.1 m/s)
Visibility: 4 miles (6 km)
Ceiling: 100 feet AGL
Clouds: broken clouds at 100 feet AGL
Weather: no significant weather forecast for this period

 AIRPORT MAP

 RUNWAY INFORMATION
Runway 06 Runway length 5564 ft Runway width 148 ft
Runway elevation 27 ft Runway displaced threshold 0 ft Runway heading 60
Runway 24 Runway length 5564 ft Runway width 148 ft
Runway elevation 51 ft Runway displaced threshold 0 ft Runway heading 240
Runway 14 Runway length 6955 ft Runway width 148 ft
Runway elevation 32 ft Runway displaced threshold 0 ft Runway heading 144
Runway 32 Runway length 6955 ft Runway width 148 ft
Runway elevation 31 ft Runway displaced threshold 0 ft Runway heading 324

 AIRPORT FREQUENCIES
Type INFO Name BREMEN INF Frequency 125.1 MHZ
Type RDR Name BREMEN RAD Frequency 136.225 MHZ
Type TWR Name SYLT TWR Frequency 119.75 MHZ

 AIRPORT NEAR NAVIGATION AIDS
Type NDB Name Sylt Frequency 387 KHZ
Type DME Name Westerland Frequency 111500 KHZ



Powered by Virtual Airlines Manager [v2.6.2]